createdAt,value
2023-03-04T00:01:17.786Z,79.16
2023-03-04T00:03:45.675Z,79.08
2023-03-04T00:06:13.593Z,79.06
2023-03-04T00:08:41.451Z,78.96
2023-03-04T00:11:09.361Z,78.98
2023-03-04T00:13:37.495Z,79.10
2023-03-04T00:16:05.742Z,79.19
2023-03-04T00:18:33.689Z,79.03
2023-03-04T00:21:01.781Z,79.09
2023-03-04T00:23:29.654Z,79.12
2023-03-04T00:25:57.528Z,79.07
2023-03-04T00:28:25.422Z,78.95
2023-03-04T00:30:53.773Z,78.97
2023-03-04T00:33:21.807Z,79.12
2023-03-04T00:35:49.850Z,79.12
2023-03-04T00:38:17.748Z,78.89
2023-03-04T00:40:45.662Z,78.87
2023-03-04T00:43:13.540Z,78.95
2023-03-04T00:45:41.525Z,78.84
2023-03-04T00:48:09.554Z,78.89
2023-03-04T00:50:37.974Z,78.84
2023-03-04T00:53:06.403Z,78.80
2023-03-04T00:55:34.331Z,78.75
2023-03-04T00:58:02.718Z,78.58
2023-03-04T01:00:30.610Z,78.50
2023-03-04T01:02:58.641Z,78.41
2023-03-04T01:05:26.778Z,78.34
2023-03-04T01:07:54.681Z,78.30
2023-03-04T01:10:22.536Z,78.40
2023-03-04T01:12:50.473Z,78.42
2023-03-04T01:15:18.747Z,78.44
2023-03-04T01:17:46.733Z,78.37
2023-03-04T01:20:17.016Z,78.40
2023-03-04T01:22:44.918Z,78.32
2023-03-04T01:25:12.884Z,78.29
2023-03-04T01:27:40.776Z,78.17
2023-03-04T01:30:11.096Z,78.04
2023-03-04T01:32:39.018Z,77.95
2023-03-04T01:35:07.515Z,78.04
2023-03-04T01:37:35.642Z,78.18
2023-03-04T01:40:05.488Z,77.97
2023-03-04T01:42:36.015Z,77.92
2023-03-04T01:45:05.508Z,78.01
2023-03-04T01:47:36.158Z,78.10
2023-03-04T01:50:11.509Z,78.16
2023-03-04T01:52:42.965Z,78.08
2023-03-04T01:55:16.752Z,78.11
2023-03-04T01:57:46.703Z,78.24
2023-03-04T02:00:23.192Z,78.36
2023-03-04T02:02:55.449Z,78.26
2023-03-04T02:05:24.649Z,78.31
2023-03-04T02:07:54.425Z,78.20
2023-03-04T02:10:22.872Z,78.26
2023-03-04T02:12:52.282Z,78.23
2023-03-04T02:15:21.022Z,78.13
2023-03-04T02:17:49.629Z,78.28
2023-03-04T02:20:32.923Z,78.26
2023-03-04T02:23:09.299Z,78.27
2023-03-04T02:25:47.874Z,78.33
2023-03-04T02:28:16.694Z,78.26
2023-03-04T02:30:44.888Z,78.45
2023-03-04T02:33:18.953Z,78.45
2023-03-04T02:35:47.146Z,78.38
2023-03-04T02:38:15.260Z,78.44
2023-03-04T02:40:48.182Z,78.33
2023-03-04T02:43:16.055Z,78.30
2023-03-04T02:45:47.476Z,78.40
2023-03-04T02:48:18.595Z,78.43
2023-03-04T02:50:53.210Z,78.45
2023-03-04T02:53:22.279Z,78.43
2023-03-04T02:55:50.467Z,78.41
2023-03-04T02:58:19.882Z,78.50
2023-03-04T03:00:48.227Z,78.48
2023-03-04T03:03:16.739Z,78.36
2023-03-04T03:05:44.769Z,78.34
2023-03-04T03:08:12.626Z,78.38
2023-03-04T03:10:40.767Z,78.37
2023-03-04T03:13:09.104Z,78.47
2023-03-04T03:15:42.183Z,78.44
2023-03-04T03:18:11.179Z,78.40
2023-03-04T03:20:39.107Z,78.31
2023-03-04T03:23:07.074Z,78.21
2023-03-04T03:25:34.993Z,78.08
2023-03-04T03:28:02.947Z,78.06
2023-03-04T03:30:30.920Z,78.11
2023-03-04T03:32:58.786Z,78.04
2023-03-04T03:35:27.084Z,78.05
2023-03-04T03:37:55.030Z,77.98
2023-03-04T03:40:23.115Z,77.94
2023-03-04T03:42:50.979Z,77.94
2023-03-04T03:45:18.932Z,77.90
2023-03-04T03:47:46.827Z,78.06
2023-03-04T03:50:14.720Z,77.95
2023-03-04T03:52:42.571Z,77.82
2023-03-04T03:55:10.761Z,77.81
2023-03-04T03:57:38.622Z,77.72
2023-03-04T04:00:08.651Z,77.57
2023-03-04T04:02:45.635Z,77.85
2023-03-04T04:05:14.288Z,77.65
2023-03-04T04:07:42.724Z,77.75
2023-03-04T04:10:11.475Z,77.86
2023-03-04T04:12:39.381Z,77.82
2023-03-04T04:15:08.110Z,77.71
2023-03-04T04:17:35.958Z,77.65
2023-03-04T04:20:04.828Z,77.68
2023-03-04T04:22:32.780Z,77.81
2023-03-04T04:25:00.667Z,77.79
2023-03-04T04:27:28.605Z,77.78
2023-03-04T04:29:56.470Z,77.72
2023-03-04T04:32:24.417Z,77.81
2023-03-04T04:34:52.407Z,77.70
2023-03-04T04:37:20.206Z,77.69
2023-03-04T04:39:48.052Z,77.64
2023-03-04T04:42:15.945Z,77.67
2023-03-04T04:44:43.875Z,77.70
2023-03-04T04:47:11.789Z,77.69
2023-03-04T04:49:39.765Z,77.75
2023-03-04T04:52:07.669Z,77.78
2023-03-04T04:54:35.532Z,77.75
2023-03-04T04:57:03.670Z,77.66
2023-03-04T04:59:31.655Z,77.66
2023-03-04T05:01:59.538Z,77.60
2023-03-04T05:04:27.602Z,77.60
2023-03-04T05:06:55.775Z,77.60
2023-03-04T05:09:23.626Z,77.71
2023-03-04T05:11:51.586Z,77.72
2023-03-04T05:14:19.505Z,77.71
2023-03-04T05:16:47.409Z,77.62
2023-03-04T05:19:15.405Z,77.59
2023-03-04T05:21:43.351Z,77.59
2023-03-04T05:24:11.231Z,77.53
2023-03-04T05:26:39.123Z,77.51
2023-03-04T05:29:07.137Z,77.46
2023-03-04T05:31:35.087Z,77.42
2023-03-04T05:34:03.037Z,77.53
2023-03-04T05:36:30.905Z,77.51
2023-03-04T05:38:58.857Z,77.43
2023-03-04T05:41:26.788Z,77.37
2023-03-04T05:43:54.758Z,77.35
2023-03-04T05:46:26.027Z,77.39
2023-03-04T05:48:54.977Z,77.27
2023-03-04T05:51:23.624Z,77.37
2023-03-04T05:53:51.623Z,77.37
2023-03-04T05:56:20.328Z,77.31
2023-03-04T05:58:48.294Z,77.31
2023-03-04T06:01:17.474Z,77.22
2023-03-04T06:03:45.490Z,77.21
2023-03-04T06:06:13.308Z,77.26
2023-03-04T06:08:41.209Z,77.17
2023-03-04T06:11:09.087Z,77.05
2023-03-04T06:13:38.202Z,77.06
2023-03-04T06:16:06.536Z,77.05
2023-03-04T06:18:34.426Z,77.02
2023-03-04T06:21:03.475Z,76.80
2023-03-04T06:23:31.838Z,76.69
2023-03-04T06:26:01.080Z,76.91
2023-03-04T06:28:29.721Z,76.74
2023-03-04T06:30:58.482Z,76.70
2023-03-04T06:33:26.413Z,76.74
2023-03-04T06:35:56.558Z,76.76
2023-03-04T06:38:25.308Z,76.85
2023-03-04T06:40:55.409Z,76.70
2023-03-04T06:43:24.999Z,76.70
2023-03-04T06:45:52.869Z,76.71
2023-03-04T06:48:20.796Z,76.52
2023-03-04T06:50:48.651Z,76.51
2023-03-04T06:53:16.646Z,76.47
2023-03-04T06:55:44.560Z,76.48
2023-03-04T06:58:12.428Z,76.47
2023-03-04T07:00:40.293Z,76.39
2023-03-04T07:12:39.468Z,76.69
2023-03-04T07:15:07.830Z,76.59
2023-03-04T07:17:36.362Z,76.66
2023-03-04T07:20:11.963Z,76.53
2023-03-04T07:22:39.819Z,76.59
2023-03-04T07:25:08.271Z,76.63
2023-03-04T07:27:38.537Z,76.52
2023-03-04T07:30:07.657Z,76.62
2023-03-04T07:32:36.111Z,76.61
2023-03-04T07:35:04.303Z,76.66
2023-03-04T07:37:32.204Z,76.74
2023-03-04T07:40:00.139Z,76.78
2023-03-04T07:42:28.059Z,76.73
2023-03-04T07:45:01.862Z,76.77
2023-03-04T07:47:29.726Z,76.73
2023-03-04T07:49:57.691Z,76.78
2023-03-04T07:52:26.476Z,76.57
2023-03-04T07:54:54.552Z,76.63
2023-03-04T07:57:23.004Z,76.77
2023-03-04T07:59:50.888Z,76.66
2023-03-04T08:02:19.080Z,76.79
2023-03-04T08:04:47.132Z,76.75
2023-03-04T08:07:15.013Z,76.71
2023-03-04T08:09:44.408Z,76.70
2023-03-04T08:12:12.284Z,76.72
2023-03-04T08:14:40.235Z,76.55
2023-03-04T08:17:09.931Z,76.65
2023-03-04T08:19:37.903Z,76.64
2023-03-04T08:22:05.928Z,76.57
2023-03-04T08:24:33.944Z,76.75
2023-03-04T08:27:02.057Z,76.65
2023-03-04T08:29:30.070Z,76.68
2023-03-04T08:31:58.388Z,76.66
2023-03-04T08:34:28.285Z,76.65
2023-03-04T08:36:56.190Z,76.60
2023-03-04T08:39:24.032Z,76.70
2023-03-04T08:41:51.894Z,76.93
2023-03-04T08:44:20.130Z,77.13
2023-03-04T08:46:48.044Z,77.09
2023-03-04T08:49:16.138Z,77.64
2023-03-04T08:51:45.292Z,77.83
2023-03-04T08:54:13.180Z,77.67
2023-03-04T08:56:41.805Z,77.45
2023-03-04T08:59:09.771Z,76.62
2023-03-04T09:01:37.778Z,76.01
2023-03-04T09:04:06.446Z,75.73
2023-03-04T09:06:34.712Z,75.62
2023-03-04T09:09:03.890Z,75.67
2023-03-04T09:11:32.191Z,75.75
2023-03-04T09:14:00.284Z,75.82
2023-03-04T09:16:28.162Z,75.56
2023-03-04T09:18:56.019Z,75.75
2023-03-04T09:21:24.002Z,75.84
2023-03-04T09:23:52.055Z,75.61
2023-03-04T09:26:26.825Z,75.67
2023-03-04T09:29:02.411Z,75.56
2023-03-04T09:31:30.900Z,75.60
2023-03-04T09:34:00.186Z,75.84
2023-03-04T09:36:28.072Z,75.86
2023-03-04T09:39:00.343Z,75.79
2023-03-04T09:41:42.232Z,75.87
2023-03-04T09:44:28.730Z,76.03
2023-03-04T09:47:00.587Z,75.71
2023-03-04T09:49:29.392Z,75.94
2023-03-04T09:52:18.972Z,76.10
2023-03-04T09:55:10.579Z,75.95
2023-03-04T09:57:50.872Z,75.75
2023-03-04T10:00:30.916Z,75.83
2023-03-04T10:03:17.885Z,75.92
2023-03-04T10:06:00.644Z,76.09
2023-03-04T10:08:53.067Z,75.91
2023-03-04T10:11:32.468Z,75.96
2023-03-04T10:14:18.633Z,76.06
2023-03-04T10:16:55.976Z,76.33
2023-03-04T10:20:09.163Z,76.34
2023-03-04T10:22:47.293Z,76.28
2023-03-04T10:25:15.173Z,76.13
2023-03-04T10:27:56.526Z,76.18
2023-03-04T10:30:46.238Z,75.81
2023-03-04T10:33:19.971Z,75.95
2023-03-04T10:35:59.670Z,75.68
2023-03-04T10:38:40.601Z,75.33
2023-03-04T10:41:17.991Z,75.56
2023-03-04T10:44:00.119Z,75.35
2023-03-04T10:46:28.088Z,74.84
2023-03-04T10:48:56.618Z,75.04
2023-03-04T10:51:27.839Z,75.49
2023-03-04T10:54:04.887Z,75.38
2023-03-04T10:56:36.089Z,75.32
2023-03-04T10:59:34.345Z,75.39
2023-03-04T11:02:27.542Z,75.08
2023-03-04T11:05:07.885Z,74.74
2023-03-04T11:08:19.426Z,75.01
2023-03-04T11:10:50.157Z,75.05
2023-03-04T11:13:23.536Z,74.98
2023-03-04T11:15:51.420Z,74.92
2023-03-04T11:18:37.611Z,74.83
2023-03-04T11:21:06.815Z,74.42
2023-03-04T11:23:44.215Z,74.59
2023-03-04T11:26:19.756Z,74.60
2023-03-04T11:29:02.322Z,74.47
2023-03-04T11:31:56.024Z,74.75
2023-03-04T11:34:30.818Z,74.69
2023-03-04T11:37:08.128Z,74.28
2023-03-04T11:39:41.955Z,74.44
2023-03-04T11:42:33.814Z,74.54
2023-03-04T11:45:02.061Z,74.39
2023-03-04T11:47:55.392Z,73.89
2023-03-04T11:50:42.869Z,74.32
2023-03-04T11:53:33.613Z,74.43
2023-03-04T11:56:25.860Z,74.41
2023-03-04T11:59:05.659Z,74.29
2023-03-04T12:01:45.461Z,74.32
2023-03-04T12:04:31.875Z,74.41
2023-03-04T12:07:09.348Z,74.41
2023-03-04T12:10:09.324Z,74.34
2023-03-04T12:13:00.628Z,74.39
2023-03-04T12:15:54.568Z,74.37
2023-03-04T12:18:52.800Z,74.45
2023-03-04T12:21:45.465Z,74.27
2023-03-04T12:24:22.267Z,74.18
2023-03-04T12:27:16.980Z,74.14
2023-03-04T12:29:58.675Z,73.52
2023-03-04T12:32:35.698Z,73.48
2023-03-04T12:35:31.818Z,73.48
2023-03-04T12:38:05.425Z,73.21
2023-03-04T12:40:56.017Z,73.38
2023-03-04T12:43:29.975Z,73.30
2023-03-04T12:46:18.037Z,73.19
2023-03-04T12:49:24.573Z,73.28
2023-03-04T12:52:10.979Z,73.18
2023-03-04T12:54:38.764Z,73.26
2023-03-04T12:57:13.561Z,73.27
2023-03-04T13:00:17.774Z,73.40
2023-03-04T13:03:10.746Z,73.03
2023-03-04T13:06:04.676Z,73.09
2023-03-04T13:08:38.473Z,72.95
2023-03-04T13:11:28.467Z,73.07
2023-03-04T13:14:09.540Z,73.04
2023-03-04T13:16:43.905Z,72.92
2023-03-04T13:19:47.090Z,72.78
2023-03-04T13:22:39.940Z,72.87
2023-03-04T13:25:32.959Z,72.74
2023-03-04T13:28:02.711Z,72.50
2023-03-04T13:30:34.400Z,72.52
2023-03-04T13:33:11.363Z,72.45
2023-03-04T13:35:48.633Z,72.34
2023-03-04T13:38:32.572Z,72.31
2023-03-04T13:41:19.346Z,72.22
2023-03-04T13:43:54.257Z,72.34
2023-03-04T13:46:26.959Z,72.53
2023-03-04T13:49:00.562Z,72.55
2023-03-04T13:51:46.186Z,72.54
2023-03-04T13:54:26.731Z,72.28
2023-03-04T13:57:00.781Z,72.15
2023-03-04T13:59:32.040Z,72.21
2023-03-04T14:02:02.056Z,72.41
2023-03-04T14:04:33.440Z,72.24
2023-03-04T14:07:16.617Z,71.98
2023-03-04T14:09:58.688Z,72.14
2023-03-04T14:12:30.366Z,72.38
2023-03-04T14:15:02.958Z,72.34
2023-03-04T14:17:36.510Z,72.18
2023-03-04T14:20:06.474Z,72.10
2023-03-04T14:22:40.186Z,72.27
2023-03-04T14:25:13.978Z,72.47
2023-03-04T14:27:41.975Z,72.52
2023-03-04T14:30:39.150Z,72.69
2023-03-04T14:33:24.336Z,72.56
2023-03-04T14:35:55.422Z,72.62
2023-03-04T14:38:27.133Z,72.84
2023-03-04T14:41:17.408Z,73.06
2023-03-04T14:44:16.801Z,73.09
2023-03-04T14:47:06.094Z,72.89
2023-03-04T14:49:39.652Z,72.90
2023-03-04T14:52:26.744Z,73.05
2023-03-04T14:55:17.780Z,73.17
2023-03-04T14:57:48.605Z,73.22
2023-03-04T15:00:20.648Z,73.23
2023-03-04T15:02:54.640Z,73.20
2023-03-04T15:05:29.714Z,73.34
2023-03-04T15:08:02.688Z,73.38
2023-03-04T15:10:38.061Z,73.23
2023-03-04T15:13:08.492Z,73.31
2023-03-04T15:15:46.095Z,73.31
2023-03-04T15:18:18.679Z,73.41
2023-03-04T15:20:55.181Z,73.53
2023-03-04T15:23:23.097Z,73.37
2023-03-04T15:25:56.202Z,73.30
2023-03-04T15:28:25.420Z,73.64
2023-03-04T15:30:54.524Z,73.66
2023-03-04T15:33:22.695Z,73.87
2023-03-04T15:35:57.675Z,74.03
2023-03-04T15:38:27.112Z,73.85
2023-03-04T15:40:58.319Z,73.95
2023-03-04T15:43:26.796Z,74.12
2023-03-04T15:45:54.898Z,74.31
2023-03-04T15:48:23.025Z,74.43
2023-03-04T15:50:59.311Z,74.61
2023-03-04T15:54:00.959Z,74.66
2023-03-04T15:56:31.850Z,74.67
2023-03-04T15:59:04.535Z,74.56
2023-03-04T16:01:32.606Z,74.67
2023-03-04T16:04:00.587Z,74.54
2023-03-04T16:06:30.872Z,74.47
2023-03-04T16:09:00.129Z,74.56
2023-03-04T16:11:30.941Z,74.48
2023-03-04T16:13:58.811Z,74.69
2023-03-04T16:16:26.844Z,74.54
2023-03-04T16:18:54.713Z,74.36
2023-03-04T16:21:26.132Z,74.42
2023-03-04T16:23:54.805Z,74.46
2023-03-04T16:26:28.212Z,74.62
2023-03-04T16:28:56.347Z,74.50
2023-03-04T16:31:24.315Z,74.50
2023-03-04T16:33:52.211Z,74.43
2023-03-04T16:36:24.440Z,74.43
2023-03-04T16:38:55.900Z,74.45
2023-03-04T16:41:28.405Z,74.33
2023-03-04T16:44:00.041Z,74.35
2023-03-04T16:46:28.672Z,74.27
2023-03-04T16:48:56.548Z,74.26
2023-03-04T16:51:24.558Z,74.24
2023-03-04T16:53:56.290Z,74.30
2023-03-04T16:56:24.279Z,74.30
2023-03-04T16:58:54.306Z,74.28
2023-03-04T17:01:26.053Z,74.34
2023-03-04T17:03:55.284Z,74.22
2023-03-04T17:06:24.683Z,74.16
2023-03-04T17:08:52.639Z,74.10
2023-03-04T17:11:23.234Z,74.16
2023-03-04T17:13:51.937Z,74.08
2023-03-04T17:16:19.918Z,74.06
2023-03-04T17:18:47.881Z,74.22
2023-03-04T17:21:22.834Z,74.31
2023-03-04T17:23:51.267Z,74.23
2023-03-04T17:26:22.768Z,74.25
2023-03-04T17:28:51.623Z,74.32
2023-03-04T17:31:21.074Z,74.40
2023-03-04T17:33:49.430Z,74.64
2023-03-04T17:36:18.734Z,74.62
2023-03-04T17:38:47.178Z,74.56
2023-03-04T17:41:18.626Z,74.84
2023-03-04T17:43:51.452Z,74.73
2023-03-04T17:46:22.243Z,74.76
2023-03-04T17:48:53.026Z,74.50
2023-03-04T17:51:21.413Z,74.62
2023-03-04T17:53:49.268Z,74.47
2023-03-04T17:56:17.435Z,74.40
2023-03-04T17:58:45.346Z,74.34
2023-03-04T18:01:20.978Z,74.26
2023-03-04T18:03:49.246Z,74.17
2023-03-04T18:06:18.353Z,74.26
2023-03-04T18:08:46.417Z,74.15
2023-03-04T18:11:14.876Z,73.95
2023-03-04T18:13:44.316Z,73.88
2023-03-04T18:16:15.705Z,73.82
2023-03-04T18:18:43.640Z,73.85
2023-03-04T18:21:13.577Z,73.89
2023-03-04T18:23:41.556Z,73.85
2023-03-04T18:26:09.948Z,73.72
2023-03-04T18:28:38.504Z,74.18
2023-03-04T18:31:06.752Z,74.29
2023-03-04T18:33:35.354Z,73.91
2023-03-04T18:36:06.159Z,77.59
2023-03-04T18:38:34.204Z,77.89
2023-03-04T18:41:08.233Z,75.54
2023-03-04T18:43:36.136Z,74.41
2023-03-04T18:46:30.038Z,74.23
2023-03-04T18:49:03.944Z,74.25
2023-03-04T18:51:32.395Z,74.56
2023-03-04T18:54:00.501Z,74.46
2023-03-04T18:56:38.535Z,74.40
2023-03-04T18:59:12.684Z,74.08
2023-03-04T19:01:40.934Z,74.17
2023-03-04T19:04:09.446Z,74.25
2023-03-04T19:06:37.496Z,74.20
2023-03-04T19:09:06.524Z,74.11
2023-03-04T19:11:34.791Z,74.23
2023-03-04T19:14:03.204Z,74.37
2023-03-04T19:16:31.420Z,74.54
2023-03-04T19:18:59.460Z,74.59
2023-03-04T19:21:27.446Z,74.80
2023-03-04T19:23:55.478Z,74.92
2023-03-04T19:26:23.428Z,75.42
2023-03-04T19:28:51.350Z,75.76
2023-03-04T19:31:19.272Z,75.77
2023-03-04T19:33:47.685Z,75.19
2023-03-04T19:36:15.651Z,75.12
2023-03-04T19:38:44.172Z,75.19
2023-03-04T19:41:15.654Z,75.94
2023-03-04T19:43:43.965Z,76.05
2023-03-04T19:46:12.822Z,75.57
2023-03-04T19:48:41.513Z,75.44
2023-03-04T19:51:26.345Z,75.27
2023-03-04T19:53:54.621Z,75.70
2023-03-04T19:56:23.512Z,75.47
2023-03-04T19:58:55.946Z,75.06
2023-03-04T20:01:28.400Z,74.86
2023-03-04T20:04:02.518Z,74.97
2023-03-04T20:06:31.175Z,74.86
2023-03-04T20:09:00.332Z,74.87
2023-03-04T20:11:29.430Z,74.87
2023-03-04T20:13:59.935Z,75.00
2023-03-04T20:16:28.931Z,74.88
2023-03-04T20:18:58.089Z,75.02
2023-03-04T20:21:28.335Z,75.34
2023-03-04T20:23:58.067Z,75.13
2023-03-04T20:26:26.361Z,74.91
2023-03-04T20:28:54.535Z,74.97
2023-03-04T20:31:29.748Z,75.03
2023-03-04T20:33:59.724Z,75.11
2023-03-04T20:36:29.867Z,75.05
2023-03-04T20:39:02.401Z,75.08
2023-03-04T20:41:33.425Z,74.95
2023-03-04T20:44:01.839Z,75.15
2023-03-04T20:46:40.155Z,75.22
2023-03-04T20:49:16.510Z,75.15
2023-03-04T20:51:44.454Z,75.04
2023-03-04T20:54:12.343Z,75.03
2023-03-04T20:56:40.674Z,75.52
2023-03-04T20:59:11.511Z,75.82
2023-03-04T21:01:42.131Z,75.52
2023-03-04T21:04:10.706Z,75.41
2023-03-04T21:06:39.727Z,75.22
2023-03-04T21:09:11.513Z,75.18
2023-03-04T21:11:42.862Z,74.62
2023-03-04T21:14:14.682Z,74.56
2023-03-04T21:16:43.185Z,74.60
2023-03-04T21:19:23.010Z,74.51
2023-03-04T21:21:52.141Z,74.62
2023-03-04T21:24:22.924Z,74.64
2023-03-04T21:26:51.124Z,74.51
2023-03-04T21:29:21.376Z,74.50
2023-03-04T21:31:53.698Z,74.55
2023-03-04T21:34:25.277Z,74.72
2023-03-04T21:36:53.182Z,74.66
2023-03-04T21:39:24.191Z,74.75
2023-03-04T21:41:52.954Z,74.64
2023-03-04T21:44:28.402Z,74.59
2023-03-04T21:46:58.386Z,74.82
2023-03-04T21:49:27.057Z,74.93
2023-03-04T21:51:55.282Z,74.98
2023-03-04T21:54:23.296Z,74.89
2023-03-04T21:56:51.240Z,74.58
2023-03-04T21:59:19.240Z,74.58
2023-03-04T22:01:47.249Z,74.63
2023-03-04T22:04:15.327Z,74.66
2023-03-04T22:06:43.317Z,74.68
2023-03-04T22:09:12.819Z,74.80
2023-03-04T22:11:40.742Z,74.84
2023-03-04T22:14:10.265Z,74.82
2023-03-04T22:16:48.920Z,74.92
2023-03-04T22:19:20.956Z,74.98
2023-03-04T22:21:48.851Z,74.88
2023-03-04T22:24:16.922Z,74.93
2023-03-04T22:26:44.776Z,74.85
2023-03-04T22:29:12.881Z,74.89
2023-03-04T22:31:41.172Z,74.93
2023-03-04T22:34:13.853Z,74.72
2023-03-04T22:36:43.865Z,74.13
2023-03-04T22:39:14.569Z,73.73
2023-03-04T22:41:42.524Z,73.52
2023-03-04T22:44:10.427Z,73.71
2023-03-04T22:46:39.781Z,73.78
2023-03-04T22:49:10.072Z,73.90
2023-03-04T22:51:41.425Z,73.77
2023-03-04T22:54:14.217Z,73.61
2023-03-04T22:56:42.650Z,73.62
2023-03-04T22:59:10.786Z,73.61
2023-03-04T23:01:38.887Z,73.71
2023-03-04T23:04:07.155Z,73.78
2023-03-04T23:06:35.070Z,73.84
2023-03-04T23:09:04.060Z,73.76
2023-03-04T23:11:35.541Z,73.80
2023-03-04T23:14:07.144Z,73.75
2023-03-04T23:16:41.050Z,73.84
2023-03-04T23:19:12.505Z,73.99
2023-03-04T23:21:40.940Z,73.97
2023-03-04T23:24:11.825Z,73.72
2023-03-04T23:26:41.581Z,73.25
2023-03-04T23:29:13.723Z,73.19
2023-03-04T23:31:42.723Z,72.93
2023-03-04T23:34:11.434Z,72.55
2023-03-04T23:36:39.563Z,72.47
2023-03-04T23:39:08.052Z,72.35
2023-03-04T23:41:36.445Z,72.21
2023-03-04T23:44:04.890Z,72.30
2023-03-04T23:46:32.925Z,72.19
2023-03-04T23:49:00.865Z,72.13
2023-03-04T23:51:29.817Z,72.31
2023-03-04T23:53:58.788Z,72.23
2023-03-04T23:56:29.688Z,72.26
2023-03-04T23:58:58.666Z,72.22
